Time;durP1;ratioP1;P1;durP2;ratioP2;P2;SDS_P1;SDS_P2;PMS_P1;PMS_P2;Temp;Humidity;BMP_temperature;BMP_pressure;BME280_temperature;BME280_humidity;BME280_pressure;Samples;Min_cycle;Max_cycle;Signal;HPM_P1;HPM_P2
2023/09/18 00:01:39;;;;;;;9.13;3.60;;;;;;;;;;4970330;28;20027;-78
2023/09/18 00:04:05;;;;;;;10.40;3.30;;;;;;;;;;4968481;28;20081;-77
2023/09/18 00:06:30;;;;;;;10.90;3.20;;;;;;;;;;4968434;28;20026;-78
2023/09/18 00:08:56;;;;;;;6.57;3.00;;;;;;;;;;4968370;28;20519;-78
2023/09/18 00:11:21;;;;;;;10.45;2.80;;;;;;;;;;4977145;28;20058;-78
2023/09/18 00:13:47;;;;;;;5.00;2.50;;;;;;;;;;4973807;28;20112;-78
2023/09/18 00:16:12;;;;;;;6.07;2.63;;;;;;;;;;4971796;28;20111;-78
2023/09/18 00:18:38;;;;;;;6.97;2.30;;;;;;;;;;4971021;28;20117;-78
2023/09/18 00:21:04;;;;;;;6.43;2.28;;;;;;;;;;4971371;28;20035;-78
2023/09/18 00:23:29;;;;;;;8.55;2.58;;;;;;;;;;4968402;28;20066;-78
2023/09/18 00:25:54;;;;;;;3.95;1.95;;;;;;;;;;4963548;28;20059;-78
2023/09/18 00:28:20;;;;;;;4.97;2.40;;;;;;;;;;4970754;28;20038;-77
2023/09/18 00:30:49;;;;;;;5.85;2.10;;;;;;;;;;4972000;28;20025;-77
2023/09/18 00:33:15;;;;;;;4.55;2.10;;;;;;;;;;4970755;28;20031;-78
2023/09/18 00:35:44;;;;;;;5.47;2.08;;;;;;;;;;4970583;28;20035;-78
2023/09/18 00:38:09;;;;;;;6.18;2.08;;;;;;;;;;4970619;28;20034;-78
2023/09/18 00:40:35;;;;;;;4.60;1.92;;;;;;;;;;4970996;28;20423;-77
2023/09/18 00:43:00;;;;;;;4.72;1.90;;;;;;;;;;4970412;28;20071;-77
2023/09/18 00:45:26;;;;;;;7.97;2.13;;;;;;;;;;4969599;28;20038;-78
2023/09/18 00:47:51;;;;;;;5.22;2.30;;;;;;;;;;4977452;28;20033;-77
2023/09/18 00:50:17;;;;;;;5.10;1.80;;;;;;;;;;4970701;28;20491;-77
2023/09/18 00:52:43;;;;;;;5.40;2.00;;;;;;;;;;4969307;28;20031;-77
2023/09/18 00:55:09;;;;;;;4.07;1.90;;;;;;;;;;4953950;28;20500;-78
2023/09/18 00:57:34;;;;;;;3.67;1.90;;;;;;;;;;4970154;28;20037;-77
2023/09/18 01:00:00;;;;;;;5.35;1.88;;;;;;;;;;4971054;28;20379;-77
2023/09/18 01:02:26;;;;;;;8.60;1.70;;;;;;;;;;4971829;28;20034;-78
2023/09/18 01:04:51;;;;;;;5.55;1.77;;;;;;;;;;4970178;28;20030;-78
2023/09/18 01:07:18;;;;;;;4.88;1.92;;;;;;;;;;4970064;28;20459;-78
2023/09/18 01:09:43;;;;;;;4.18;1.80;;;;;;;;;;4969740;28;20033;-77
2023/09/18 01:12:27;;;;;;;6.72;2.10;;;;;;;;;;4970524;28;20027;-78
2023/09/18 01:15:22;;;;;;;4.20;1.90;;;;;;;;;;4969283;28;20061;-77
2023/09/18 01:17:48;;;;;;;3.40;1.73;;;;;;;;;;4963931;28;20057;-78
2023/09/18 01:20:14;;;;;;;5.35;1.80;;;;;;;;;;4967665;28;20582;-78
2023/09/18 01:22:39;;;;;;;5.18;1.80;;;;;;;;;;4968441;28;20057;-78
2023/09/18 01:25:08;;;;;;;6.57;1.80;;;;;;;;;;4959723;28;20115;-79
2023/09/18 01:27:33;;;;;;;5.15;1.80;;;;;;;;;;4974951;28;20113;-78
2023/09/18 01:29:58;;;;;;;3.75;1.88;;;;;;;;;;4970593;28;20142;-78
2023/09/18 01:32:27;;;;;;;3.88;1.80;;;;;;;;;;4970249;28;20026;-78
2023/09/18 01:34:54;;;;;;;5.22;1.92;;;;;;;;;;4969935;28;20526;-78
2023/09/18 01:37:22;;;;;;;6.15;2.00;;;;;;;;;;4970204;28;20023;-77
2023/09/18 01:39:49;;;;;;;4.18;1.83;;;;;;;;;;4975322;28;20372;-78
2023/09/18 01:42:15;;;;;;;3.88;1.95;;;;;;;;;;4969994;28;20051;-78
2023/09/18 01:44:41;;;;;;;3.33;1.90;;;;;;;;;;4970027;28;20038;-78
2023/09/18 01:47:09;;;;;;;3.78;1.80;;;;;;;;;;4969988;28;20484;-78
2023/09/18 01:49:36;;;;;;;3.42;1.88;;;;;;;;;;4958441;28;20103;-78
2023/09/18 01:52:03;;;;;;;5.43;2.03;;;;;;;;;;4970180;28;20027;-78
2023/09/18 01:54:29;;;;;;;4.72;2.00;;;;;;;;;;4957305;28;20070;-78
2023/09/18 01:56:54;;;;;;;4.57;2.20;;;;;;;;;;4964605;28;20103;-77
2023/09/18 01:59:20;;;;;;;3.90;2.00;;;;;;;;;;4969694;28;20027;-78
2023/09/18 02:01:45;;;;;;;5.18;2.40;;;;;;;;;;4969596;28;20681;-78
2023/09/18 02:04:11;;;;;;;5.90;2.42;;;;;;;;;;4969614;28;20618;-78
2023/09/18 02:06:36;;;;;;;4.28;2.20;;;;;;;;;;4969909;28;20594;-78
2023/09/18 02:09:03;;;;;;;8.45;2.80;;;;;;;;;;4969578;28;20027;-79
2023/09/18 02:11:29;;;;;;;6.50;2.80;;;;;;;;;;4969789;28;20105;-78
2023/09/18 02:13:54;;;;;;;8.68;2.53;;;;;;;;;;4969691;28;20109;-78
2023/09/18 02:16:22;;;;;;;5.13;2.83;;;;;;;;;;4981270;28;20034;-78
2023/09/18 02:18:47;;;;;;;7.53;2.97;;;;;;;;;;4969295;28;20731;-78
2023/09/18 02:21:22;;;;;;;8.77;2.78;;;;;;;;;;4967650;28;20034;-77
2023/09/18 02:23:51;;;;;;;5.22;2.78;;;;;;;;;;4965748;28;20038;-77
2023/09/18 02:26:17;;;;;;;6.35;2.70;;;;;;;;;;4966549;28;20437;-78
2023/09/18 02:28:43;;;;;;;8.65;3.30;;;;;;;;;;4967656;28;20125;-78
2023/09/18 02:31:08;;;;;;;7.32;2.90;;;;;;;;;;4966512;28;20109;-78
2023/09/18 02:33:33;;;;;;;5.50;3.00;;;;;;;;;;4968804;28;20030;-78
2023/09/18 02:35:59;;;;;;;8.80;3.15;;;;;;;;;;4972211;28;20038;-77
2023/09/18 02:38:24;;;;;;;5.90;2.80;;;;;;;;;;4970826;28;20078;-78
2023/09/18 02:40:50;;;;;;;4.47;3.08;;;;;;;;;;4971796;28;20507;-76
2023/09/18 02:43:15;;;;;;;5.10;2.63;;;;;;;;;;4970139;28;20053;-77
2023/09/18 02:45:40;;;;;;;5.45;2.75;;;;;;;;;;4969608;28;20023;-77
2023/09/18 02:48:06;;;;;;;6.13;2.95;;;;;;;;;;4971202;28;20031;-77
2023/09/18 02:50:31;;;;;;;7.43;2.80;;;;;;;;;;4968999;28;20043;-77
2023/09/18 02:52:56;;;;;;;9.15;2.90;;;;;;;;;;4970722;28;20042;-77
2023/09/18 02:55:22;;;;;;;5.45;2.83;;;;;;;;;;4971057;28;20039;-77
2023/09/18 02:57:47;;;;;;;5.38;2.80;;;;;;;;;;4966515;28;20046;-78
2023/09/18 03:00:12;;;;;;;6.22;2.80;;;;;;;;;;4966610;28;20062;-78
2023/09/18 03:02:38;;;;;;;4.72;2.78;;;;;;;;;;4970089;28;20062;-77
2023/09/18 03:05:04;;;;;;;7.30;2.60;;;;;;;;;;4971730;28;20435;-77
2023/09/18 03:07:29;;;;;;;6.13;2.60;;;;;;;;;;4974586;28;20018;-78
2023/09/18 03:09:55;;;;;;;6.38;2.80;;;;;;;;;;4976999;28;20065;-78
2023/09/18 03:12:22;;;;;;;5.60;2.60;;;;;;;;;;4969549;28;20019;-77
2023/09/18 03:14:47;;;;;;;6.43;2.78;;;;;;;;;;4970905;28;20030;-77
2023/09/18 03:17:13;;;;;;;4.32;2.45;;;;;;;;;;4970144;28;20062;-76
2023/09/18 03:19:38;;;;;;;5.88;2.70;;;;;;;;;;4969905;28;20058;-77
2023/09/18 03:22:04;;;;;;;4.60;2.40;;;;;;;;;;4969953;28;20460;-77
2023/09/18 03:24:29;;;;;;;5.78;2.40;;;;;;;;;;4968755;28;20027;-76
2023/09/18 03:26:54;;;;;;;4.60;2.50;;;;;;;;;;4968914;28;20554;-77
2023/09/18 03:29:20;;;;;;;8.35;2.50;;;;;;;;;;4969504;28;20118;-77
2023/09/18 03:31:45;;;;;;;5.00;2.42;;;;;;;;;;4968508;28;20033;-76
2023/09/18 03:34:10;;;;;;;4.55;2.47;;;;;;;;;;4982117;28;20034;-75
2023/09/18 03:36:37;;;;;;;3.90;2.30;;;;;;;;;;4972503;28;20038;-76
2023/09/18 03:39:03;;;;;;;6.03;2.40;;;;;;;;;;4971501;28;20110;-76
2023/09/18 03:41:33;;;;;;;7.30;2.50;;;;;;;;;;4971640;28;20130;-77
2023/09/18 03:43:59;;;;;;;7.40;2.60;;;;;;;;;;4970621;28;20594;-75
2023/09/18 03:46:24;;;;;;;5.32;2.10;;;;;;;;;;4975320;28;20066;-76
2023/09/18 03:48:50;;;;;;;8.30;2.67;;;;;;;;;;4975270;28;20361;-77
2023/09/18 03:51:15;;;;;;;6.20;2.40;;;;;;;;;;4971830;28;20027;-76
2023/09/18 03:53:41;;;;;;;6.15;2.40;;;;;;;;;;4971541;28;20042;-75
2023/09/18 03:56:06;;;;;;;6.15;2.20;;;;;;;;;;4971452;28;20093;-76
2023/09/18 03:58:32;;;;;;;5.45;2.00;;;;;;;;;;4970404;28;20027;-76
2023/09/18 04:00:57;;;;;;;4.63;2.20;;;;;;;;;;4960090;28;20030;-76
2023/09/18 04:03:22;;;;;;;5.50;2.30;;;;;;;;;;4970976;28;20610;-76
2023/09/18 04:05:48;;;;;;;7.80;2.25;;;;;;;;;;4971344;28;20521;-76
2023/09/18 04:08:13;;;;;;;4.72;2.47;;;;;;;;;;4970918;28;20023;-75
2023/09/18 04:10:38;;;;;;;10.32;2.70;;;;;;;;;;4971564;28;20498;-76
2023/09/18 04:13:04;;;;;;;5.70;2.45;;;;;;;;;;4969400;28;20026;-76
2023/09/18 04:15:30;;;;;;;7.25;2.30;;;;;;;;;;4971237;28;20047;-78
2023/09/18 04:17:56;;;;;;;5.57;2.65;;;;;;;;;;4971069;28;20545;-76
2023/09/18 04:20:22;;;;;;;4.82;2.47;;;;;;;;;;4970432;28;20031;-76
2023/09/18 04:23:20;;;;;;;4.38;2.42;;;;;;;;;;4971035;28;20357;-75
2023/09/18 04:25:45;;;;;;;5.95;2.42;;;;;;;;;;4971080;28;20092;-76
2023/09/18 04:28:15;;;;;;;6.90;2.67;;;;;;;;;;4969326;28;20129;-76
2023/09/18 04:30:41;;;;;;;6.50;2.60;;;;;;;;;;4959236;28;20031;-76
2023/09/18 04:33:06;;;;;;;8.90;2.70;;;;;;;;;;4971056;28;20092;-76
2023/09/18 04:35:31;;;;;;;7.18;2.90;;;;;;;;;;4970705;28;20026;-75
2023/09/18 04:37:59;;;;;;;7.10;2.80;;;;;;;;;;4970146;28;20470;-76
2023/09/18 04:40:24;;;;;;;7.20;2.83;;;;;;;;;;4970670;28;20039;-75
2023/09/18 04:42:50;;;;;;;7.90;2.72;;;;;;;;;;4970494;28;20050;-75
2023/09/18 04:45:16;;;;;;;7.85;2.60;;;;;;;;;;4970844;28;20023;-76
2023/09/18 04:47:41;;;;;;;5.82;2.30;;;;;;;;;;4969529;28;20464;-76
2023/09/18 04:50:09;;;;;;;4.35;2.40;;;;;;;;;;4969931;28;20070;-76
2023/09/18 04:52:38;;;;;;;6.55;2.90;;;;;;;;;;4970456;28;20034;-77
2023/09/18 04:55:05;;;;;;;5.82;2.70;;;;;;;;;;4969883;28;20066;-76
2023/09/18 04:57:31;;;;;;;4.50;2.83;;;;;;;;;;4967841;28;20034;-75
2023/09/18 04:59:56;;;;;;;8.55;3.00;;;;;;;;;;4964485;28;20094;-76
2023/09/18 05:02:22;;;;;;;6.30;2.75;;;;;;;;;;4969510;28;20086;-75
2023/09/18 05:04:47;;;;;;;6.82;2.60;;;;;;;;;;4969823;28;20089;-75
2023/09/18 05:07:12;;;;;;;5.63;2.58;;;;;;;;;;4977616;28;20090;-76
2023/09/18 05:09:39;;;;;;;6.32;2.97;;;;;;;;;;4980363;28;20062;-76
2023/09/18 05:12:08;;;;;;;7.18;2.72;;;;;;;;;;4981436;28;20266;-76
2023/09/18 05:14:34;;;;;;;6.80;2.58;;;;;;;;;;4980324;28;20076;-75
2023/09/18 05:16:59;;;;;;;5.80;2.95;;;;;;;;;;4973611;28;20468;-77
2023/09/18 05:19:28;;;;;;;5.68;2.83;;;;;;;;;;4975722;28;20054;-77
2023/09/18 05:21:54;;;;;;;8.52;2.95;;;;;;;;;;4975932;28;20515;-78
2023/09/18 05:24:26;;;;;;;5.03;2.95;;;;;;;;;;4975508;28;20050;-77
2023/09/18 05:26:52;;;;;;;8.23;3.10;;;;;;;;;;4975333;28;20041;-76
2023/09/18 05:29:18;;;;;;;6.45;2.67;;;;;;;;;;4964291;28;20377;-77
2023/09/18 05:31:45;;;;;;;7.78;3.08;;;;;;;;;;4972649;28;20034;-78
2023/09/18 05:34:11;;;;;;;6.43;2.95;;;;;;;;;;4977266;28;20019;-79
2023/09/18 05:36:36;;;;;;;8.57;2.97;;;;;;;;;;4975456;28;20718;-78
2023/09/18 05:39:01;;;;;;;9.85;3.00;;;;;;;;;;4980753;28;20375;-84
2023/09/18 05:41:28;;;;;;;10.32;3.42;;;;;;;;;;4978661;28;20022;-75
2023/09/18 05:43:55;;;;;;;9.38;3.85;;;;;;;;;;4974912;28;20043;-78
2023/09/18 05:46:20;;;;;;;6.75;3.00;;;;;;;;;;4978379;28;20034;-75
2023/09/18 05:48:46;;;;;;;7.80;3.35;;;;;;;;;;4972567;28;20027;-73
2023/09/18 05:51:11;;;;;;;10.75;3.45;;;;;;;;;;4972585;28;20027;-75
2023/09/18 05:53:37;;;;;;;8.93;3.13;;;;;;;;;;4969426;28;20027;-78
2023/09/18 05:56:04;;;;;;;8.02;3.30;;;;;;;;;;4968346;28;20074;-79
2023/09/18 05:58:31;;;;;;;8.52;3.35;;;;;;;;;;4966405;28;20035;-83
2023/09/18 06:01:00;;;;;;;7.65;3.13;;;;;;;;;;4970951;28;20074;-79
2023/09/18 06:03:27;;;;;;;7.22;3.20;;;;;;;;;;4969715;28;20435;-79
2023/09/18 06:05:52;;;;;;;8.05;3.50;;;;;;;;;;4967265;28;20057;-78
2023/09/18 06:08:18;;;;;;;8.15;3.33;;;;;;;;;;4970476;28;20475;-83
2023/09/18 06:10:44;;;;;;;6.88;3.20;;;;;;;;;;4973070;28;20428;-78
2023/09/18 06:13:10;;;;;;;6.57;3.05;;;;;;;;;;4973052;28;20058;-79
2023/09/18 06:15:35;;;;;;;10.35;3.10;;;;;;;;;;4973187;28;20027;-79
2023/09/18 06:18:01;;;;;;;7.55;3.35;;;;;;;;;;4973155;28;20428;-79
2023/09/18 06:20:26;;;;;;;10.13;3.35;;;;;;;;;;4973157;28;20261;-79
2023/09/18 06:22:52;;;;;;;7.40;3.38;;;;;;;;;;4972353;28;20069;-78
2023/09/18 06:25:18;;;;;;;6.78;3.45;;;;;;;;;;4973179;28;20566;-78
2023/09/18 06:27:43;;;;;;;7.93;3.33;;;;;;;;;;4971885;28;20027;-78
2023/09/18 06:30:09;;;;;;;7.70;3.60;;;;;;;;;;4964049;28;20027;-76
2023/09/18 06:32:36;;;;;;;6.97;3.08;;;;;;;;;;4967692;28;20031;-76
2023/09/18 06:35:02;;;;;;;10.02;3.70;;;;;;;;;;4972837;28;20419;-76
2023/09/18 06:37:27;;;;;;;7.32;3.42;;;;;;;;;;4972565;28;20140;-79
2023/09/18 06:39:53;;;;;;;12.13;3.50;;;;;;;;;;4972711;28;20027;-81
2023/09/18 06:42:18;;;;;;;7.07;3.75;;;;;;;;;;4972916;28;20031;-77
2023/09/18 06:44:44;;;;;;;8.60;4.10;;;;;;;;;;4972746;28;20023;-77
2023/09/18 06:47:09;;;;;;;8.43;4.18;;;;;;;;;;4972772;28;20089;-76
2023/09/18 06:49:35;;;;;;;9.15;3.88;;;;;;;;;;4972829;28;20034;-76
2023/09/18 06:52:00;;;;;;;9.65;4.22;;;;;;;;;;4972890;28;20030;-77
2023/09/18 06:54:25;;;;;;;11.93;4.53;;;;;;;;;;4971846;28;20027;-76
2023/09/18 06:56:51;;;;;;;12.38;4.25;;;;;;;;;;4971588;28;20081;-76
2023/09/18 06:59:16;;;;;;;11.00;4.50;;;;;;;;;;4963324;28;20019;-76
2023/09/18 07:01:42;;;;;;;8.82;4.50;;;;;;;;;;4962074;28;20037;-76
2023/09/18 07:04:08;;;;;;;10.50;4.50;;;;;;;;;;4959512;28;20029;-77
2023/09/18 07:06:33;;;;;;;10.40;4.18;;;;;;;;;;4972419;28;20108;-76
2023/09/18 07:08:59;;;;;;;10.00;4.03;;;;;;;;;;4971796;28;20089;-76
2023/09/18 07:11:28;;;;;;;8.88;4.40;;;;;;;;;;4972296;28;20114;-77
2023/09/18 07:13:53;;;;;;;12.02;4.80;;;;;;;;;;4971756;28;20029;-79
2023/09/18 07:16:19;;;;;;;11.40;4.30;;;;;;;;;;4972308;28;20027;-77
2023/09/18 07:18:44;;;;;;;8.35;4.05;;;;;;;;;;4971584;28;20066;-77
2023/09/18 07:21:09;;;;;;;9.05;4.45;;;;;;;;;;4971997;28;20464;-77
2023/09/18 07:23:37;;;;;;;8.70;4.35;;;;;;;;;;4971605;28;20030;-75
2023/09/18 07:26:03;;;;;;;14.30;4.43;;;;;;;;;;4972146;28;20062;-76
2023/09/18 07:28:28;;;;;;;8.55;4.25;;;;;;;;;;4967442;28;20039;-76
2023/09/18 07:30:54;;;;;;;7.65;4.25;;;;;;;;;;4957947;28;20073;-76
2023/09/18 07:33:20;;;;;;;11.93;4.35;;;;;;;;;;4971753;28;20029;-79
2023/09/18 07:35:51;;;;;;;11.93;4.80;;;;;;;;;;4971809;28;20456;-77
2023/09/18 07:38:18;;;;;;;10.77;4.30;;;;;;;;;;4959608;28;20481;-79
2023/09/18 07:40:44;;;;;;;9.20;4.45;;;;;;;;;;4971876;28;20039;-77
2023/09/18 07:43:09;;;;;;;10.48;4.10;;;;;;;;;;4971549;28;20122;-79
2023/09/18 07:45:35;;;;;;;8.75;4.47;;;;;;;;;;4972266;28;20078;-76
2023/09/18 07:48:00;;;;;;;8.30;4.18;;;;;;;;;;4971508;28;20089;-77
2023/09/18 07:50:25;;;;;;;9.68;4.10;;;;;;;;;;4971859;28;20035;-80
2023/09/18 07:52:50;;;;;;;12.07;4.15;;;;;;;;;;4971167;28;20035;-77
2023/09/18 07:55:16;;;;;;;9.27;4.18;;;;;;;;;;4971928;28;20472;-78
2023/09/18 07:57:41;;;;;;;14.75;4.45;;;;;;;;;;4970743;28;20027;-78
2023/09/18 08:00:12;;;;;;;9.98;4.30;;;;;;;;;;4957384;28;20031;-79
2023/09/18 08:02:40;;;;;;;11.50;4.32;;;;;;;;;;4971498;28;20034;-77
2023/09/18 08:05:05;;;;;;;7.03;4.10;;;;;;;;;;4971305;28;20030;-76
2023/09/18 08:07:31;;;;;;;8.82;4.00;;;;;;;;;;4971033;28;20385;-77
2023/09/18 08:09:57;;;;;;;7.80;3.97;;;;;;;;;;4970950;28;20034;-80
2023/09/18 08:12:23;;;;;;;10.45;3.70;;;;;;;;;;4970187;28;20026;-78
2023/09/18 08:14:50;;;;;;;10.32;3.63;;;;;;;;;;4971309;28;20030;-77
2023/09/18 08:17:15;;;;;;;8.15;3.53;;;;;;;;;;4971277;28;20058;-77
2023/09/18 08:19:40;;;;;;;8.85;3.95;;;;;;;;;;4971085;28;20128;-78
2023/09/18 08:22:06;;;;;;;9.48;3.67;;;;;;;;;;4971074;28;20022;-80
2023/09/18 08:24:31;;;;;;;7.57;3.20;;;;;;;;;;4970601;28;20034;-79
2023/09/18 08:26:56;;;;;;;8.95;3.60;;;;;;;;;;4971179;28;20113;-78
2023/09/18 08:29:23;;;;;;;9.57;3.55;;;;;;;;;;4961849;28;20086;-82
2023/09/18 08:31:49;;;;;;;7.78;3.53;;;;;;;;;;4961617;28;20027;-77
2023/09/18 08:34:14;;;;;;;8.07;3.25;;;;;;;;;;4970712;28;20026;-80
2023/09/18 08:36:40;;;;;;;7.65;3.35;;;;;;;;;;4971277;28;20029;-78
2023/09/18 08:39:09;;;;;;;12.18;3.85;;;;;;;;;;4970070;28;20054;-80
2023/09/18 08:41:40;;;;;;;5.35;3.20;;;;;;;;;;4970688;28;20114;-79
2023/09/18 08:44:07;;;;;;;8.88;3.50;;;;;;;;;;4970427;28;20150;-79
2023/09/18 08:46:34;;;;;;;6.32;3.00;;;;;;;;;;4969719;28;20038;-79
2023/09/18 08:49:01;;;;;;;7.15;3.20;;;;;;;;;;4970762;28;20101;-79
2023/09/18 08:51:28;;;;;;;7.10;3.15;;;;;;;;;;4970549;28;20527;-80
2023/09/18 08:53:54;;;;;;;8.15;3.38;;;;;;;;;;4970250;28;20052;-80
2023/09/18 08:56:21;;;;;;;10.27;3.47;;;;;;;;;;4970644;28;20061;-79
2023/09/18 08:58:47;;;;;;;6.20;2.97;;;;;;;;;;4965877;28;20039;-79
2023/09/18 09:01:12;;;;;;;6.00;3.03;;;;;;;;;;4960428;28;20027;-81
2023/09/18 09:03:41;;;;;;;8.48;3.25;;;;;;;;;;4970617;28;20023;-81
2023/09/18 09:06:09;;;;;;;6.75;3.33;;;;;;;;;;4970554;28;20030;-78
2023/09/18 09:08:35;;;;;;;7.78;3.50;;;;;;;;;;4969854;28;20037;-77
2023/09/18 09:11:00;;;;;;;7.00;3.30;;;;;;;;;;4970287;28;20026;-77
2023/09/18 09:13:26;;;;;;;8.02;3.22;;;;;;;;;;4970364;28;20027;-76
2023/09/18 09:15:56;;;;;;;7.30;3.10;;;;;;;;;;4970204;28;20058;-77
2023/09/18 09:18:27;;;;;;;10.60;3.08;;;;;;;;;;4970336;28;20459;-79
2023/09/18 09:20:59;;;;;;;6.65;3.00;;;;;;;;;;4969584;28;20092;-77
2023/09/18 09:23:30;;;;;;;9.35;2.92;;;;;;;;;;4970143;28;20114;-77
2023/09/18 09:26:15;;;;;;;6.47;2.72;;;;;;;;;;4970234;28;20031;-75
2023/09/18 09:28:43;;;;;;;6.60;2.75;;;;;;;;;;4967770;28;20122;-75
2023/09/18 09:31:10;;;;;;;7.13;2.92;;;;;;;;;;4957130;28;20500;-78
2023/09/18 09:33:38;;;;;;;9.15;3.25;;;;;;;;;;4970087;28;20023;-76
2023/09/18 09:36:05;;;;;;;8.98;3.03;;;;;;;;;;4970029;28;20023;-77
2023/09/18 09:38:36;;;;;;;7.32;3.20;;;;;;;;;;4969627;28;20113;-75
2023/09/18 09:41:06;;;;;;;8.05;2.80;;;;;;;;;;4969762;28;20102;-76
2023/09/18 09:43:32;;;;;;;5.35;2.85;;;;;;;;;;4972381;28;20047;-76
2023/09/18 09:46:00;;;;;;;9.00;2.88;;;;;;;;;;4961299;28;20085;-80
2023/09/18 09:48:25;;;;;;;7.50;3.00;;;;;;;;;;4972188;28;20419;-77
2023/09/18 09:50:53;;;;;;;9.73;3.10;;;;;;;;;;4973792;28;20625;-78
2023/09/18 09:53:18;;;;;;;7.57;3.00;;;;;;;;;;4971081;28;20027;-78
2023/09/18 09:55:44;;;;;;;9.68;3.10;;;;;;;;;;4973893;28;20033;-77
2023/09/18 09:58:11;;;;;;;5.22;2.60;;;;;;;;;;4974916;28;20033;-78
2023/09/18 10:00:47;;;;;;;6.00;2.90;;;;;;;;;;4966746;28;20079;-78
2023/09/18 10:03:17;;;;;;;7.60;3.10;;;;;;;;;;4971589;28;20035;-79
2023/09/18 10:05:46;;;;;;;7.32;2.85;;;;;;;;;;4974799;28;20023;-78
2023/09/18 10:08:26;;;;;;;8.32;3.20;;;;;;;;;;4973304;28;20085;-76
2023/09/18 10:10:58;;;;;;;9.27;3.00;;;;;;;;;;4973322;28;20491;-76
2023/09/18 10:13:32;;;;;;;9.70;3.15;;;;;;;;;;4973532;28;20126;-78
2023/09/18 10:16:02;;;;;;;7.72;2.60;;;;;;;;;;4972834;28;20019;-78
2023/09/18 10:18:56;;;;;;;6.75;3.10;;;;;;;;;;4973450;28;20066;-75
2023/09/18 10:21:31;;;;;;;6.93;3.30;;;;;;;;;;4964195;28;20041;-79
2023/09/18 10:24:26;;;;;;;5.63;2.80;;;;;;;;;;4973698;28;20026;-78
2023/09/18 10:26:59;;;;;;;6.20;2.90;;;;;;;;;;4967822;28;20043;-77
2023/09/18 10:29:25;;;;;;;6.43;2.80;;;;;;;;;;4964974;28;20385;-78
2023/09/18 10:31:53;;;;;;;5.80;3.13;;;;;;;;;;4964577;28;20041;-78
2023/09/18 10:34:19;;;;;;;4.65;2.80;;;;;;;;;;4972281;28;20522;-78
2023/09/18 10:36:47;;;;;;;6.65;2.60;;;;;;;;;;4972526;28;20058;-77
2023/09/18 10:39:12;;;;;;;7.97;2.90;;;;;;;;;;4971901;28;20038;-78
2023/09/18 10:41:40;;;;;;;9.18;3.20;;;;;;;;;;4973140;28;20026;-81
2023/09/18 10:44:06;;;;;;;4.70;2.80;;;;;;;;;;4972746;28;20042;-82
2023/09/18 10:46:32;;;;;;;6.63;2.85;;;;;;;;;;4973275;28;20019;-81
2023/09/18 10:49:00;;;;;;;8.05;2.92;;;;;;;;;;4973826;28;20053;-80
2023/09/18 10:51:26;;;;;;;6.40;2.85;;;;;;;;;;4973307;28;20073;-79
2023/09/18 10:53:54;;;;;;;6.20;2.80;;;;;;;;;;4972725;28;20034;-80
2023/09/18 10:56:20;;;;;;;7.55;2.92;;;;;;;;;;4973005;28;20046;-78
2023/09/18 10:58:46;;;;;;;8.13;2.88;;;;;;;;;;4973241;28;20026;-80
2023/09/18 11:01:12;;;;;;;3.85;2.70;;;;;;;;;;4968030;28;20550;-79
2023/09/18 11:03:38;;;;;;;6.05;2.50;;;;;;;;;;4974061;28;20069;-78
2023/09/18 11:06:06;;;;;;;7.38;2.55;;;;;;;;;;4976031;28;20117;-79
2023/09/18 11:08:35;;;;;;;6.05;2.50;;;;;;;;;;4972242;28;20030;-79
2023/09/18 11:11:14;;;;;;;8.70;2.80;;;;;;;;;;4975264;28;20051;-78
2023/09/18 11:13:45;;;;;;;6.35;2.53;;;;;;;;;;4976114;28;20034;-78
2023/09/18 11:16:26;;;;;;;5.30;2.53;;;;;;;;;;4972577;28;20031;-79
2023/09/18 11:18:53;;;;;;;7.72;2.80;;;;;;;;;;4972426;28;20038;-79
2023/09/18 11:21:24;;;;;;;6.57;2.80;;;;;;;;;;4972293;28;20154;-78
2023/09/18 11:24:03;;;;;;;5.50;2.63;;;;;;;;;;4972657;28;20043;-77
2023/09/18 11:26:33;;;;;;;3.72;2.33;;;;;;;;;;4975741;28;20050;-78
2023/09/18 11:29:04;;;;;;;5.13;2.30;;;;;;;;;;4972342;28;20085;-80
2023/09/18 11:31:43;;;;;;;4.70;2.47;;;;;;;;;;4979139;28;20043;-79
2023/09/18 11:34:22;;;;;;;6.22;2.72;;;;;;;;;;4973411;28;20101;-78
2023/09/18 11:36:49;;;;;;;8.15;2.22;;;;;;;;;;4973911;28;20711;-78
2023/09/18 11:39:41;;;;;;;6.15;2.30;;;;;;;;;;4973620;28;20035;-78
2023/09/18 11:42:15;;;;;;;7.63;2.45;;;;;;;;;;4974215;28;20349;-76
2023/09/18 11:44:41;;;;;;;4.40;2.50;;;;;;;;;;4969976;28;20039;-76
2023/09/18 11:47:17;;;;;;;4.82;2.33;;;;;;;;;;4973786;28;20089;-78
2023/09/18 11:49:50;;;;;;;4.70;2.40;;;;;;;;;;4977283;28;20222;-78
2023/09/18 11:52:17;;;;;;;8.60;2.55;;;;;;;;;;4974583;28;20042;-76
2023/09/18 11:54:43;;;;;;;5.35;2.55;;;;;;;;;;4972439;28;20065;-77
2023/09/18 11:57:09;;;;;;;4.57;2.30;;;;;;;;;;4971340;28;20022;-78
2023/09/18 11:59:38;;;;;;;4.90;2.40;;;;;;;;;;4971595;28;20037;-79
2023/09/18 12:02:06;;;;;;;4.80;2.35;;;;;;;;;;4967320;28;20709;-82
2023/09/18 12:04:32;;;;;;;5.25;2.35;;;;;;;;;;4971166;28;20411;-78
2023/09/18 12:06:59;;;;;;;5.75;2.17;;;;;;;;;;4970825;28;20022;-78
2023/09/18 12:09:27;;;;;;;5.75;2.30;;;;;;;;;;4969687;28;20062;-77
2023/09/18 12:11:55;;;;;;;6.07;2.22;;;;;;;;;;4971781;28;20046;-78
2023/09/18 12:14:21;;;;;;;5.07;2.00;;;;;;;;;;4974224;28;20023;-76
2023/09/18 12:16:50;;;;;;;6.10;2.20;;;;;;;;;;4971327;28;20053;-79
2023/09/18 12:19:20;;;;;;;4.15;2.20;;;;;;;;;;4970757;28;20065;-76
2023/09/18 12:21:49;;;;;;;8.70;2.10;;;;;;;;;;4971807;28;20147;-77
2023/09/18 12:24:20;;;;;;;4.38;2.10;;;;;;;;;;4970233;28;20361;-78
2023/09/18 12:26:45;;;;;;;4.75;2.08;;;;;;;;;;4970370;28;20088;-79
2023/09/18 12:29:11;;;;;;;4.93;2.13;;;;;;;;;;4968209;28;20030;-80
2023/09/18 12:31:37;;;;;;;6.15;2.35;;;;;;;;;;4962561;28;20035;-77
2023/09/18 12:34:02;;;;;;;3.92;2.03;;;;;;;;;;4959612;28;20023;-78
2023/09/18 12:36:30;;;;;;;6.47;2.20;;;;;;;;;;4971262;28;20041;-77
2023/09/18 12:38:57;;;;;;;7.32;2.00;;;;;;;;;;4970422;28;20382;-78
2023/09/18 12:41:24;;;;;;;3.15;2.10;;;;;;;;;;4971195;28;20318;-78
2023/09/18 12:43:50;;;;;;;4.90;2.17;;;;;;;;;;4968547;28;20066;-78
2023/09/18 12:46:15;;;;;;;4.43;2.10;;;;;;;;;;4969097;28;20023;-79
2023/09/18 12:48:46;;;;;;;3.78;2.20;;;;;;;;;;4968881;28;20031;-77
2023/09/18 12:51:11;;;;;;;5.65;2.42;;;;;;;;;;4972404;28;20023;-78
2023/09/18 12:53:37;;;;;;;5.15;2.17;;;;;;;;;;4968286;28;20137;-80
2023/09/18 12:56:15;;;;;;;4.40;2.15;;;;;;;;;;4972028;28;20026;-79
2023/09/18 12:58:42;;;;;;;6.60;2.10;;;;;;;;;;4967902;28;20015;-78
2023/09/18 13:01:09;;;;;;;4.25;2.10;;;;;;;;;;4971497;28;20319;-80
2023/09/18 13:03:42;;;;;;;5.47;2.17;;;;;;;;;;4969359;28;20067;-75
2023/09/18 13:06:17;;;;;;;3.75;1.90;;;;;;;;;;4972790;28;20034;-79
2023/09/18 13:08:43;;;;;;;3.95;1.80;;;;;;;;;;4969835;28;20077;-80
2023/09/18 13:11:10;;;;;;;8.68;2.00;;;;;;;;;;4971740;28;20042;-77
2023/09/18 13:13:36;;;;;;;3.97;1.67;;;;;;;;;;4971581;28;20406;-78
2023/09/18 13:16:05;;;;;;;2.75;1.70;;;;;;;;;;4969507;28;20030;-78
2023/09/18 13:18:31;;;;;;;3.30;1.80;;;;;;;;;;4969336;28;20030;-76
2023/09/18 13:20:57;;;;;;;6.38;2.00;;;;;;;;;;4969229;28;20085;-79
2023/09/18 13:23:30;;;;;;;4.75;1.92;;;;;;;;;;4969440;28;20035;-77
2023/09/18 13:26:01;;;;;;;9.15;2.10;;;;;;;;;;4969063;28;20041;-78
2023/09/18 13:28:26;;;;;;;4.47;2.00;;;;;;;;;;4958216;28;20077;-80
2023/09/18 13:30:52;;;;;;;3.00;1.75;;;;;;;;;;4970035;28;20031;-77
2023/09/18 13:33:18;;;;;;;2.97;1.70;;;;;;;;;;4969904;28;20030;-78
2023/09/18 13:35:45;;;;;;;3.22;1.70;;;;;;;;;;4969920;28;20571;-77
2023/09/18 13:38:11;;;;;;;3.97;2.08;;;;;;;;;;4958989;28;20027;-78
2023/09/18 13:40:47;;;;;;;3.25;1.90;;;;;;;;;;4964571;28;20039;-78
2023/09/18 13:43:18;;;;;;;4.03;1.70;;;;;;;;;;4969742;28;20043;-79
2023/09/18 13:45:44;;;;;;;3.38;1.70;;;;;;;;;;4969698;28;20037;-78
2023/09/18 13:48:12;;;;;;;5.28;1.60;;;;;;;;;;4970327;28;20023;-77
2023/09/18 13:50:38;;;;;;;3.38;1.58;;;;;;;;;;4971982;28;20045;-78
2023/09/18 13:53:05;;;;;;;3.03;1.50;;;;;;;;;;4977761;28;20041;-76
2023/09/18 13:55:31;;;;;;;3.40;1.65;;;;;;;;;;4971235;28;20041;-75
2023/09/18 13:57:57;;;;;;;4.57;1.63;;;;;;;;;;4973926;28;20051;-77
2023/09/18 14:00:23;;;;;;;5.10;1.80;;;;;;;;;;4980372;28;20026;-79
2023/09/18 14:02:48;;;;;;;3.70;1.45;;;;;;;;;;4979448;28;20035;-78
2023/09/18 14:05:13;;;;;;;3.55;1.73;;;;;;;;;;4980762;28;20037;-78
2023/09/18 14:07:39;;;;;;;5.18;1.80;;;;;;;;;;4974028;28;20039;-77
2023/09/18 14:10:07;;;;;;;5.75;1.67;;;;;;;;;;4977826;28;20129;-74
2023/09/18 14:12:32;;;;;;;3.78;1.50;;;;;;;;;;4981113;28;20030;-76
2023/09/18 14:14:58;;;;;;;3.72;1.60;;;;;;;;;;4980891;28;20054;-76
2023/09/18 14:17:23;;;;;;;4.32;1.58;;;;;;;;;;4980895;28;20031;-76
2023/09/18 14:19:49;;;;;;;3.72;1.50;;;;;;;;;;4980681;28;20042;-78
2023/09/18 14:22:14;;;;;;;4.43;1.48;;;;;;;;;;4980990;28;20031;-75
2023/09/18 14:24:40;;;;;;;2.28;1.45;;;;;;;;;;4978168;28;20026;-76
2023/09/18 14:27:07;;;;;;;2.42;1.20;;;;;;;;;;4978060;28;20070;-76
2023/09/18 14:29:33;;;;;;;5.53;1.42;;;;;;;;;;4982606;28;20027;-75
2023/09/18 14:31:59;;;;;;;4.35;1.58;;;;;;;;;;4984513;28;20058;-75
2023/09/18 14:34:25;;;;;;;2.80;1.33;;;;;;;;;;4983113;28;20042;-77
2023/09/18 14:36:50;;;;;;;2.65;1.45;;;;;;;;;;4979318;28;20031;-77
2023/09/18 14:39:16;;;;;;;2.20;1.40;;;;;;;;;;4970886;28;20023;-75
2023/09/18 14:41:44;;;;;;;4.68;1.40;;;;;;;;;;4982606;28;20113;-77